Airfield :
LOGIN :

Register | Disclaimer

   EN    FR    IT 

 










Legend :    VFR   Marginal VFR   IFR   Intensive IFR   Very Intensive IFR
Visi :
Ceiling :
>= 8 km
>= 3000ft
5 to 8 km
1000 to 3000 ft
1500m to 5 km
500 to 1000 ft
800 to 1500m
200 to 500 ft
< 800m
< 200 ft
Symbols :   Thunderstorms  Fog  Heavy snow  Heavy precipitations  Wind > 20 kt
SIGMETs :     Misc.  Thunderstorms  Icing  Turbulence  Mountain Waves  Volcanic Ashes







- Airport Elevation : 80 ft
- IATA code : LPL
- Download approach charts


EGGP - Liverpool John Lennon

CURRENT METAR :
  • 230650Z 00000KT 0500 R27/0375 FZFG SCT001 M03/M04 Q1001

EXPIRED METARs :
  • 230620Z 00000KT 1500 R27/0600 BCFG SCT001 M02/M03 Q1000
  • 230550Z 00000KT 0300 R27/0450 FZFG SCT001 M02/M03 Q1000
  • 230520Z 00000KT 0100 R27/0300 FZFG SCT001 M02/M03 Q1000
  • 230450Z 00000KT 9999 2000E MIFG SCT010 M02/M03 Q1000
  • 230420Z 06003KT 9999 FEW045 M01/M02 Q0999
  • 230350Z 33004KT 290V070 9999 FEW045 01/M00 Q0999

TAF AMD TAF EGGP
Valid from the 23 at 06:00 until the 24 at 06:00 UTC


230600Z 2306/2406 35006KT 9999 SCT020
TEMPO 2306/2308 0300 SHSN FZFG BKN001
PROB30
TEMPO 2308/2318 7000 -SHRASN
PROB30
TEMPO 2322/2406 2000 SHRA -SHRASN BKN004
ATIS : +44 151 907 2000 (option 5 or ext 5150)
Met : +44 871 750 5150
No reported NOTAMs for that airfield.



MET'MAP, your aeronautical weather chart ! - Copyright ORBIFLY December 2007 - Disclaimer

ORBIFLY MET'MAP TEAM :

Programming & Development : Alexandra Zaïnal
Concept & Development : Baudouin d'Aumeries
Co-Development & Prog : Marc-Olivier Méhu
Technical & hardware support : Manuel Goepfert

Contact : metmap@orbifly.com




SOURCES & CREDITS :

   NOAA